Eugene, Oregon
Current Conditions -  °F | °C
As of 2:54 PM on Tuesday 27 Jan 2015 (Local Time) from KEUG Reporting Station
Overcast Overcast  
Wind Chill: 12°   Ceiling: 3700
Heat Index: 12°   Visibility: 10mi
Dew Point:   Wind: 6mph
Humidity: 80%   Direction: 140°SE
Pressure: 30.17"   Gusts: NA
Location:  44.05°N, 123.08°W
Report Text: KEUG 272254Z 14005KT 10SM FEW028 OVC037 12/09 A3017 RMK AO2 SLP216 T01220089
Loading
Personal Weather Stations






























Interactive Weather Map New forecast layout! Learn more

10-Day Weather Forecast

Advertisements
Track Severe Weather on mobile